Airfield :
LOGIN :

Register | Disclaimer

   EN    FR    IT 

 










Legend :    VFR   Marginal VFR   IFR   Intensive IFR   Very Intensive IFR
Visi :
Ceiling :
>= 8 km
>= 3000ft
5 to 8 km
1000 to 3000 ft
1500m to 5 km
500 to 1000 ft
800 to 1500m
200 to 500 ft
< 800m
< 200 ft
Symbols :   Thunderstorms  Fog  Heavy snow  Heavy precipitations  Wind > 20 kt
SIGMETs :     Misc.  Thunderstorms  Icing  Turbulence  Mountain Waves  Volcanic Ashes






- Airport Elevation : 276 ft


LYVR - Vršac International

CURRENT METAR :
  • 280630Z 13026KT CAVOK 12/03 Q1018 NOSIG

EXPIRED METARs :
  • 280600Z AUTO 13026G39KT CAVOK 12/02 Q1018
  • 280530Z AUTO 13025KT CAVOK 12/01 Q1017
  • 280500Z AUTO 13026KT CAVOK 13/M00 Q1017
  • 280430Z AUTO 13026G40KT CAVOK 13/00 Q1017
  • 280400Z AUTO 13027G39KT CAVOK 13/00 Q1017
  • 280330Z AUTO 13027G43KT CAVOK 13/01 Q1017
  • 280300Z AUTO 13026G37KT CAVOK 13/01 Q1017
  • 280230Z AUTO 13025G36KT CAVOK 13/01 Q1017
  • 280200Z AUTO 13027G38KT CAVOK 13/02 Q1017
  • 280130Z AUTO 13027G39KT CAVOK 13/02 Q1017

TAF TAF LYVR
Valid from the 28 at 06:00 until the 29 at 06:00 UTC


280500Z 2806/2906 13020G30KT CAVOK TX19/2813Z TN11/2905Z
TEMPO 2806/2810 14025G40KT
BECMG 2812/2814 12015KT



MET'MAP, your aeronautical weather chart ! - Copyright ORBIFLY December 2007 - Disclaimer

ORBIFLY MET'MAP TEAM :

Programming & Development : Alexandra Zaïnal
Original concept : Baudouin d'Aumeries
Technical & hardware support : Manuel Goepfert
Assistance : Marc-Olivier Méhu




SOURCES & CREDITS :

   NOAA